Time;durP1;ratioP1;P1;durP2;ratioP2;P2;SDS_P1;SDS_P2;PMS_P1;PMS_P2;Temp;Humidity;BMP_temperature;BMP_pressure;BME280_temperature;BME280_humidity;BME280_pressure;Samples;Min_cycle;Max_cycle;Signal;HPM_P1;HPM_P2
2021/12/31 00:06:17;;;;;;;12.27;5.90;;;;;;;12.06;100.00;101729.63;4989929;28;20165;-73
2021/12/31 00:09:18;;;;;;;13.80;5.13;;;;;;;12.13;100.00;101722.34;4989777;28;20066;-73
2021/12/31 00:15:06;;;;;;;16.13;6.03;;;;;;;12.15;100.00;101721.34;4992767;28;20165;-71
2021/12/31 00:18:07;;;;;;;12.95;5.57;;;;;;;12.14;100.00;101727.66;4973649;28;20058;-73
2021/12/31 00:21:17;;;;;;;14.80;5.53;;;;;;;12.18;100.00;101723.09;4980278;28;20406;-72
2021/12/31 00:23:59;;;;;;;14.35;5.20;;;;;;;12.18;100.00;101715.06;4962207;28;20137;-72
2021/12/31 00:26:38;;;;;;;13.45;5.22;;;;;;;12.25;100.00;101716.66;4974910;28;20711;-72
2021/12/31 00:36:39;;;;;;;16.02;7.35;;;;;;;12.15;100.00;101710.66;4991299;28;20120;-72
2021/12/31 00:42:45;;;;;;;12.32;5.28;;;;;;;12.22;100.00;101711.38;4991078;28;20587;-72
2021/12/31 00:45:50;;;;;;;12.65;5.43;;;;;;;12.25;100.00;101708.63;4990102;28;20073;-74
2021/12/31 00:48:33;;;;;;;11.65;4.57;;;;;;;12.30;100.00;101713.88;4985605;28;20657;-75
2021/12/31 00:51:01;;;;;;;12.40;5.95;;;;;;;12.24;100.00;101709.56;4991169;28;20050;-75
2021/12/31 00:53:29;;;;;;;14.05;5.03;;;;;;;12.24;100.00;101706.91;4986552;28;20345;-75
2021/12/31 00:56:02;;;;;;;11.50;4.95;;;;;;;12.25;100.00;101716.66;4991577;28;20050;-75
2021/12/31 00:58:31;;;;;;;14.13;5.78;;;;;;;12.27;100.00;101706.78;4990815;28;20062;-77
2021/12/31 01:00:59;;;;;;;13.18;5.55;;;;;;;12.31;100.00;101711.16;4990983;28;20053;-75
2021/12/31 01:03:27;;;;;;;12.70;5.45;;;;;;;12.28;100.00;101703.22;4989712;28;20054;-77
2021/12/31 01:05:54;;;;;;;9.23;4.88;;;;;;;12.27;100.00;101711.28;4988677;28;20676;-77
2021/12/31 01:08:23;;;;;;;9.35;4.55;;;;;;;12.30;100.00;101720.09;4990843;28;20068;-75
2021/12/31 01:10:52;;;;;;;12.15;4.63;;;;;;;12.30;100.00;101714.75;4986085;28;20054;-75
2021/12/31 01:13:30;;;;;;;9.27;4.55;;;;;;;12.30;100.00;101708.53;4989869;28;20049;-74
2021/12/31 01:16:08;;;;;;;10.43;4.40;;;;;;;12.34;100.00;101718.22;4988706;28;20494;-72
2021/12/31 01:21:41;;;;;;;10.55;3.95;;;;;;;12.29;100.00;101717.47;4928011;28;20063;-72
2021/12/31 01:24:54;;;;;;;9.40;4.07;;;;;;;12.26;100.00;101721.13;4926834;28;20060;-72
2021/12/31 01:30:20;;;;;;;11.63;3.97;;;;;;;12.37;100.00;101722.63;4929228;28;20747;-75
2021/12/31 01:32:52;;;;;;;12.32;4.47;;;;;;;12.39;100.00;101723.47;4928753;28;20093;-75
2021/12/31 01:35:21;;;;;;;13.55;4.40;;;;;;;12.41;100.00;101735.00;4929329;28;20060;-75
2021/12/31 01:37:49;;;;;;;7.70;4.10;;;;;;;12.37;100.00;101736.88;4928989;28;20055;-75
2021/12/31 01:40:17;;;;;;;14.13;4.45;;;;;;;12.36;100.00;101728.91;4930061;28;20205;-76
2021/12/31 01:42:44;;;;;;;7.60;3.90;;;;;;;12.35;100.00;101732.50;4929209;28;20971;-75
2021/12/31 01:45:17;;;;;;;10.02;4.10;;;;;;;12.29;100.00;101729.06;4928016;28;20059;-75
2021/12/31 01:48:07;;;;;;;11.27;3.88;;;;;;;12.33;100.00;101730.75;4929791;28;20191;-75
2021/12/31 01:50:37;;;;;;;9.80;3.80;;;;;;;12.37;100.00;101720.84;4933159;28;20736;-75
2021/12/31 01:53:05;;;;;;;9.95;4.10;;;;;;;12.33;100.00;101724.53;4928725;28;20137;-75
2021/12/31 01:55:34;;;;;;;12.13;3.88;;;;;;;12.38;100.00;101729.72;4933541;28;20158;-74
2021/12/31 01:58:04;;;;;;;6.95;3.72;;;;;;;12.42;100.00;101726.94;4942631;28;20184;-75
2021/12/31 02:00:32;;;;;;;7.55;3.92;;;;;;;12.42;100.00;101732.31;4993538;28;20058;-75
2021/12/31 02:03:01;;;;;;;9.02;3.88;;;;;;;12.38;100.00;101730.63;4994242;28;20137;-75
2021/12/31 02:05:29;;;;;;;8.00;4.03;;;;;;;12.40;100.00;101726.13;4994282;28;20093;-75
2021/12/31 02:08:00;;;;;;;9.98;4.25;;;;;;;12.42;100.00;101715.38;4991979;28;20182;-75
2021/12/31 02:10:28;;;;;;;9.15;3.80;;;;;;;12.43;100.00;101726.03;4992960;28;20053;-75
2021/12/31 02:12:56;;;;;;;11.45;3.90;;;;;;;12.41;100.00;101713.59;4992830;28;20077;-75
2021/12/31 02:15:26;;;;;;;8.55;4.30;;;;;;;12.47;100.00;101722.34;4992193;28;20064;-74
2021/12/31 02:17:54;;;;;;;9.25;4.45;;;;;;;12.45;100.00;101716.16;4992738;28;20046;-75
2021/12/31 02:20:36;;;;;;;8.43;4.05;;;;;;;12.45;100.00;101710.81;4991079;28;20396;-75
2021/12/31 02:23:08;;;;;;;10.68;4.85;;;;;;;12.41;100.00;101719.84;4992859;28;20494;-75
2021/12/31 02:25:37;;;;;;;8.55;3.42;;;;;;;12.43;100.00;101719.78;4991521;28;20058;-75
2021/12/31 02:28:05;;;;;;;7.38;3.72;;;;;;;12.48;100.00;101715.19;4995966;28;20108;-75
2021/12/31 02:30:34;;;;;;;11.90;3.97;;;;;;;12.47;100.00;101718.81;4993827;28;20061;-75
2021/12/31 02:33:03;;;;;;;9.50;3.58;;;;;;;12.43;100.00;101714.44;4992674;28;20061;-74
2021/12/31 02:35:33;;;;;;;11.48;4.32;;;;;;;12.45;100.00;101713.50;4989576;28;20136;-75
2021/12/31 02:38:03;;;;;;;9.95;3.47;;;;;;;12.47;100.00;101713.44;4991055;28;20131;-75
2021/12/31 02:40:32;;;;;;;11.35;4.07;;;;;;;12.43;100.00;101719.78;4992193;28;20326;-75
2021/12/31 02:43:01;;;;;;;9.25;3.60;;;;;;;12.42;100.00;101718.03;4992987;28;20335;-75
2021/12/31 02:45:32;;;;;;;11.93;3.97;;;;;;;12.52;100.00;101715.06;4994474;28;20073;-75
2021/12/31 02:48:03;;;;;;;10.32;3.97;;;;;;;12.52;100.00;101719.56;4990825;28;20057;-75
2021/12/31 02:50:35;;;;;;;8.18;3.97;;;;;;;12.53;100.00;101713.28;4994161;28;20491;-75
2021/12/31 02:56:10;;;;;;;10.23;3.97;;;;;;;12.46;100.00;101717.03;4953307;28;20136;-72
2021/12/31 02:59:07;;;;;;;9.38;3.90;;;;;;;12.49;100.00;101715.16;4975144;28;20445;-72
2021/12/31 03:01:59;;;;;;;10.90;4.20;;;;;;;12.43;100.00;101699.28;4978625;28;20108;-74
2021/12/31 03:07:54;;;;;;;8.52;4.40;;;;;;;12.52;100.00;101722.25;4991104;28;20407;-74
2021/12/31 03:10:30;;;;;;;6.00;3.10;;;;;;;12.48;100.00;101716.09;4977544;28;20045;-74
2021/12/31 03:13:33;;;;;;;7.95;4.00;;;;;;;12.47;100.00;101708.97;4983279;28;20050;-74
2021/12/31 03:16:22;;;;;;;12.48;3.85;;;;;;;12.40;100.00;101707.38;4990744;28;20054;-74
2021/12/31 03:19:08;;;;;;;7.82;3.08;;;;;;;12.46;100.00;101688.50;4988320;28;20062;-74
2021/12/31 03:21:57;;;;;;;6.78;3.45;;;;;;;12.44;100.00;101692.13;4977310;28;20210;-74
2021/12/31 03:25:14;;;;;;;8.48;3.50;;;;;;;12.47;100.00;101692.03;4989396;28;20716;-74
2021/12/31 03:27:52;;;;;;;9.52;3.50;;;;;;;12.42;100.00;101691.28;4991982;28;20119;-74
2021/12/31 03:33:49;;;;;;;10.00;3.58;;;;;;;12.44;100.00;101695.66;4990071;28;20380;-73
2021/12/31 03:36:25;;;;;;;9.40;4.30;;;;;;;12.47;100.00;101694.72;4975053;28;20093;-74
2021/12/31 03:41:45;;;;;;;11.60;3.40;;;;;;;12.48;100.00;101701.81;4985752;28;20036;-75
2021/12/31 03:44:16;;;;;;;6.63;3.30;;;;;;;12.53;100.00;101710.59;4988695;28;20077;-73
2021/12/31 03:47:00;;;;;;;8.85;3.05;;;;;;;12.47;100.00;101706.28;4991219;28;20506;-74
2021/12/31 03:55:19;;;;;;;;;;;;;;;12.54;100.00;101708.81;4992108;28;20077;-73
2021/12/31 03:58:12;;;;;;;7.22;3.33;;;;;;;12.55;100.00;101702.53;4978312;28;20020;-73
2021/12/31 04:01:02;;;;;;;8.80;3.42;;;;;;;12.48;100.00;101709.84;4990434;28;20538;-73
2021/12/31 04:03:45;;;;;;;;;;;;;;;12.56;100.00;101706.97;4988247;28;20086;-72
2021/12/31 04:06:22;;;;;;;6.35;3.25;;;;;;;12.55;100.00;101713.25;4987139;28;20085;-73
2021/12/31 04:09:19;;;;;;;8.07;3.80;;;;;;;12.48;100.00;101697.34;4976886;28;20087;-75
2021/12/31 04:11:53;;;;;;;8.45;3.50;;;;;;;12.48;100.00;101699.13;4990179;28;20050;-76
2021/12/31 04:15:17;;;;;;;7.95;3.58;;;;;;;12.45;100.00;101700.09;4973389;28;20299;-75
2021/12/31 04:18:13;;;;;;;5.80;2.90;;;;;;;12.48;100.00;101700.03;4987825;28;20058;-73
2021/12/31 04:20:56;;;;;;;8.97;3.43;;;;;;;12.47;100.00;101700.94;4974124;28;20143;-75
2021/12/31 04:24:06;;;;;;;8.40;3.15;;;;;;;12.44;100.00;101697.47;4973313;28;20072;-74
2021/12/31 04:26:52;;;;;;;;;;;;;;;12.46;100.00;101695.63;4982342;28;20065;-73
2021/12/31 04:29:33;;;;;;;5.65;3.10;;;;;;;12.46;100.00;101685.81;4986366;28;19949;-74
2021/12/31 04:32:11;;;;;;;6.10;3.20;;;;;;;12.48;100.00;101675.94;4993393;28;20051;-75
2021/12/31 04:34:41;;;;;;;8.38;3.17;;;;;;;12.45;100.00;101680.50;4986914;28;20065;-78
2021/12/31 04:37:09;;;;;;;5.20;3.10;;;;;;;12.44;100.00;101676.06;4985705;28;20475;-76
2021/12/31 04:39:37;;;;;;;7.70;3.33;;;;;;;12.45;100.00;101675.16;4990042;28;20108;-77
2021/12/31 04:42:05;;;;;;;8.02;3.33;;;;;;;12.46;100.00;101680.47;4989084;28;20137;-77
2021/12/31 04:44:35;;;;;;;6.07;3.35;;;;;;;12.33;100.00;101673.66;4989836;28;20056;-75
2021/12/31 04:47:03;;;;;;;8.07;3.30;;;;;;;12.29;100.00;101667.53;4989566;28;20150;-75
2021/12/31 04:49:33;;;;;;;7.75;3.97;;;;;;;12.30;100.00;101650.53;4988785;28;20588;-74
2021/12/31 04:52:01;;;;;;;5.88;2.90;;;;;;;12.23;100.00;101653.44;4991675;28;20088;-75
2021/12/31 04:54:30;;;;;;;6.35;3.20;;;;;;;12.26;100.00;101650.66;4989893;28;20096;-75
2021/12/31 04:56:59;;;;;;;5.80;2.78;;;;;;;12.23;100.00;101642.72;4989844;28;20054;-75
2021/12/31 04:59:27;;;;;;;5.55;2.72;;;;;;;12.22;100.00;101654.31;4989549;28;20124;-75
2021/12/31 05:01:56;;;;;;;6.78;2.88;;;;;;;12.20;100.00;101641.00;4989575;28;20230;-76
2021/12/31 05:04:24;;;;;;;8.07;3.45;;;;;;;12.10;100.00;101636.78;4988728;28;20434;-75
2021/12/31 05:06:52;;;;;;;8.63;3.40;;;;;;;12.15;100.00;101642.91;4990640;28;20057;-76
2021/12/31 05:09:20;;;;;;;8.32;3.17;;;;;;;12.10;100.00;101642.16;4988964;28;20046;-76
2021/12/31 05:11:48;;;;;;;9.30;3.50;;;;;;;12.06;100.00;101649.38;4990460;28;20077;-76
2021/12/31 05:14:26;;;;;;;9.40;3.42;;;;;;;12.00;100.00;101646.84;4987319;28;20550;-73
2021/12/31 05:17:18;;;;;;;7.95;3.05;;;;;;;11.98;100.00;101635.31;4987940;28;20054;-73
2021/12/31 05:22:49;;;;;;;7.57;2.97;;;;;;;11.87;100.00;101645.38;4992664;28;20058;-74
2021/12/31 05:25:28;;;;;;;10.18;3.45;;;;;;;11.86;100.00;101651.63;4993819;28;20068;-73
2021/12/31 05:34:08;;;;;;;8.10;3.70;;;;;;;11.85;100.00;101665.91;4993499;28;20529;-74
2021/12/31 05:36:44;;;;;;;7.47;3.35;;;;;;;11.88;100.00;101657.81;4989593;28;20060;-75
2021/12/31 05:39:13;;;;;;;7.78;3.35;;;;;;;11.83;100.00;101652.56;4996718;28;20061;-75
2021/12/31 05:41:41;;;;;;;8.00;3.28;;;;;;;11.77;100.00;101664.31;4991225;28;20643;-76
2021/12/31 05:44:09;;;;;;;10.30;3.85;;;;;;;11.76;100.00;101659.00;4993777;28;20080;-75
2021/12/31 05:46:39;;;;;;;7.07;3.50;;;;;;;11.73;100.00;101654.63;4989367;28;20046;-75
2021/12/31 05:49:09;;;;;;;5.90;3.50;;;;;;;11.74;100.00;101663.50;4990055;28;20064;-75
2021/12/31 05:51:37;;;;;;;9.25;3.40;;;;;;;11.69;100.00;101655.59;4993652;28;20152;-76
2021/12/31 05:54:16;;;;;;;6.47;3.30;;;;;;;11.70;100.00;101657.34;4990421;28;20406;-73
2021/12/31 05:56:59;;;;;;;6.35;3.22;;;;;;;11.68;100.00;101658.28;4992497;28;20115;-72
2021/12/31 05:59:43;;;;;;;6.78;3.22;;;;;;;11.67;100.00;101664.56;4976877;28;20049;-77
2021/12/31 06:02:19;;;;;;;9.05;3.83;;;;;;;11.66;100.00;101663.66;4993505;28;20057;-73
2021/12/31 06:04:52;;;;;;;8.23;3.42;;;;;;;11.64;100.00;101657.50;4991603;28;20052;-77
2021/12/31 06:07:21;;;;;;;8.57;3.13;;;;;;;11.68;100.00;101656.53;4993739;28;20560;-77
2021/12/31 06:09:49;;;;;;;5.05;3.10;;;;;;;11.64;100.00;101637.91;4991913;28;20229;-78
2021/12/31 06:12:20;;;;;;;11.70;3.80;;;;;;;11.58;100.00;101639.81;4992838;28;20078;-76
2021/12/31 06:14:50;;;;;;;6.50;3.15;;;;;;;11.61;100.00;101629.94;4992979;28;20065;-76
2021/12/31 06:17:26;;;;;;;6.55;3.15;;;;;;;11.48;100.00;101619.56;4991884;28;20058;-77
2021/12/31 06:19:56;;;;;;;7.45;3.05;;;;;;;11.50;100.00;101628.41;4989822;28;20082;-77
2021/12/31 06:22:27;;;;;;;7.90;3.33;;;;;;;11.47;100.00;101628.47;4991788;28;20057;-77
2021/12/31 06:24:57;;;;;;;9.13;3.60;;;;;;;11.48;100.00;101618.69;4991341;28;20403;-77
2021/12/31 06:27:26;;;;;;;7.10;2.95;;;;;;;11.51;100.00;101606.13;4991291;28;20254;-76
2021/12/31 06:29:54;;;;;;;6.72;3.83;;;;;;;11.52;100.00;101612.34;4993501;28;20065;-75
2021/12/31 06:32:23;;;;;;;7.45;3.92;;;;;;;11.46;100.00;101605.38;4990933;28;20057;-77
2021/12/31 06:34:50;;;;;;;9.02;3.92;;;;;;;11.56;100.00;101598.88;4992350;28;20068;-78
2021/12/31 06:37:22;;;;;;;9.40;3.63;;;;;;;11.50;100.00;101598.16;4991861;28;20144;-77
2021/12/31 06:39:52;;;;;;;8.45;3.83;;;;;;;11.44;100.00;101593.84;4989734;28;20081;-77
2021/12/31 06:42:25;;;;;;;10.43;3.72;;;;;;;11.44;100.00;101595.59;4990843;28;20101;-77
2021/12/31 06:44:58;;;;;;;5.63;3.35;;;;;;;11.38;100.00;101607.31;4993311;28;20050;-77
2021/12/31 06:47:29;;;;;;;7.95;3.22;;;;;;;11.31;100.00;101603.91;4990698;28;20057;-78
2021/12/31 06:50:00;;;;;;;5.72;3.15;;;;;;;11.37;100.00;101608.22;4993110;28;20382;-77
2021/12/31 06:52:30;;;;;;;6.93;3.38;;;;;;;11.26;100.00;101608.47;4988307;28;20062;-77
2021/12/31 06:54:57;;;;;;;8.27;3.38;;;;;;;11.21;100.00;101616.59;4996218;28;20057;-77
2021/12/31 06:57:27;;;;;;;7.75;3.40;;;;;;;11.21;100.00;101629.09;4990547;28;20350;-77
2021/12/31 07:00:00;;;;;;;8.45;3.58;;;;;;;11.18;100.00;101629.16;4991296;28;20062;-77
2021/12/31 07:02:28;;;;;;;9.10;3.67;;;;;;;11.22;100.00;101620.16;4990461;28;20061;-77
2021/12/31 07:04:56;;;;;;;7.18;3.33;;;;;;;11.20;100.00;101629.97;4991537;28;20062;-77
2021/12/31 07:07:24;;;;;;;7.32;3.88;;;;;;;11.25;100.00;101624.53;4991013;28;20100;-77
2021/12/31 07:09:53;;;;;;;8.45;3.22;;;;;;;11.25;100.00;101636.09;4991300;28;20058;-77
2021/12/31 07:12:24;;;;;;;8.50;3.60;;;;;;;11.32;100.00;101645.75;4989750;28;20145;-76
2021/12/31 07:14:52;;;;;;;8.40;3.55;;;;;;;11.39;100.00;101658.06;4992138;28;20156;-76
2021/12/31 07:17:29;;;;;;;6.68;3.30;;;;;;;11.38;100.00;101650.94;4992393;28;20092;-77
2021/12/31 07:19:58;;;;;;;6.47;3.15;;;;;;;11.38;100.00;101658.97;4991394;28;20054;-76
2021/12/31 07:22:26;;;;;;;8.00;2.97;;;;;;;11.46;100.00;101653.47;4991478;28;20125;-76
2021/12/31 07:24:55;;;;;;;5.68;3.00;;;;;;;11.40;100.00;101659.81;4991527;28;20146;-76
2021/12/31 07:27:23;;;;;;;5.65;3.58;;;;;;;11.39;100.00;101657.16;4993895;28;20156;-76
2021/12/31 07:29:53;;;;;;;8.70;3.60;;;;;;;11.39;100.00;101670.53;4992818;28;20056;-76
2021/12/31 07:32:21;;;;;;;7.05;2.97;;;;;;;11.38;100.00;101658.97;4993662;28;20058;-76
2021/12/31 07:35:04;;;;;;;6.60;2.60;;;;;;;11.33;100.00;101650.19;4993275;28;20090;-73
2021/12/31 07:38:00;;;;;;;8.70;3.33;;;;;;;11.40;100.00;101649.13;4977662;28;20050;-75
2021/12/31 07:41:02;;;;;;;7.63;3.92;;;;;;;11.43;100.00;101641.97;4979571;28;20058;-74
2021/12/31 07:44:10;;;;;;;7.20;3.35;;;;;;;11.42;100.00;101627.72;4991110;28;20230;-74
2021/12/31 07:47:20;;;;;;;8.40;3.35;;;;;;;11.40;100.00;101632.22;4992039;28;20053;-72
2021/12/31 07:50:13;;;;;;;9.35;3.33;;;;;;;11.35;100.00;101642.13;4991027;28;20061;-72
2021/12/31 07:52:55;;;;;;;9.57;3.45;;;;;;;11.34;100.00;101651.94;4986636;28;20392;-75
2021/12/31 07:55:23;;;;;;;8.20;3.40;;;;;;;11.36;100.00;101650.13;4990322;28;20065;-75
2021/12/31 07:57:55;;;;;;;6.95;3.55;;;;;;;11.35;100.00;101644.81;4991217;28;20204;-75
2021/12/31 08:00:23;;;;;;;8.80;3.50;;;;;;;11.34;100.00;101645.69;4990236;28;20060;-75
2021/12/31 08:02:51;;;;;;;7.90;3.85;;;;;;;11.30;100.00;101644.03;4991367;28;20058;-75
2021/12/31 08:05:18;;;;;;;6.88;3.40;;;;;;;11.29;100.00;101634.25;4993397;28;20053;-75
2021/12/31 08:08:21;;;;;;;7.45;3.17;;;;;;;11.25;100.00;101648.59;4991600;28;20490;-75
2021/12/31 08:11:22;;;;;;;6.10;3.28;;;;;;;11.23;100.00;101653.97;4990681;28;20104;-73
2021/12/31 08:14:01;;;;;;;;;;;;;;;11.28;100.00;101659.22;4992070;28;20586;-73
2021/12/31 08:16:34;;;;;;;9.05;3.30;;;;;;;11.35;100.00;101663.50;4972075;28;20044;-76
2021/12/31 08:21:53;;;;;;;7.55;3.65;;;;;;;11.33;100.00;101665.34;4989385;28;20148;-76
2021/12/31 08:24:21;;;;;;;8.05;3.50;;;;;;;11.28;100.00;101656.53;4990638;28;20141;-76
2021/12/31 08:26:57;;;;;;;4.28;2.78;;;;;;;11.37;100.00;101659.00;4991395;28;20107;-74
2021/12/31 08:33:17;;;;;;;5.90;3.05;;;;;;;11.39;100.00;101644.72;4770263;27;9663433;-73
2021/12/31 08:36:48;;;;;;;9.90;3.63;;;;;;;11.38;100.00;101655.44;5082419;28;20354;-74
2021/12/31 08:39:15;;;;;;;8.65;3.13;;;;;;;11.38;100.00;101666.13;5081408;28;20056;-75
2021/12/31 08:41:43;;;;;;;9.52;3.75;;;;;;;11.42;100.00;101654.44;5081497;28;20066;-76
2021/12/31 08:44:16;;;;;;;6.90;3.55;;;;;;;11.39;100.00;101667.84;5084797;28;20047;-77
2021/12/31 08:46:45;;;;;;;6.20;3.38;;;;;;;11.43;100.00;101674.03;5083436;28;20048;-76
2021/12/31 08:49:13;;;;;;;11.15;3.92;;;;;;;11.38;100.00;101680.34;5083782;28;20063;-75
2021/12/31 08:52:03;;;;;;;7.85;3.40;;;;;;;11.43;100.00;101664.22;5084133;28;20052;-73
2021/12/31 08:54:50;;;;;;;7.88;3.45;;;;;;;11.47;100.00;101657.00;5019901;28;20048;-76
2021/12/31 08:57:18;;;;;;;8.40;3.90;;;;;;;11.46;100.00;101660.59;5084118;28;20106;-76
2021/12/31 08:59:46;;;;;;;5.97;3.33;;;;;;;11.45;100.00;101661.50;5085339;28;20051;-77
2021/12/31 09:02:14;;;;;;;7.28;3.15;;;;;;;11.46;100.00;101668.59;5085203;28;20139;-76
2021/12/31 09:05:04;;;;;;;5.68;3.03;;;;;;;11.54;100.00;101666.63;5085190;28;20048;-75
2021/12/31 09:07:55;;;;;;;8.02;3.85;;;;;;;11.59;100.00;101659.38;5079590;28;20048;-76
2021/12/31 09:10:23;;;;;;;7.07;3.08;;;;;;;11.69;100.00;101673.44;5081756;28;20059;-77
2021/12/31 09:12:51;;;;;;;9.15;3.88;;;;;;;11.69;100.00;101671.63;5081813;28;20228;-76
2021/12/31 09:15:20;;;;;;;9.60;3.78;;;;;;;11.61;100.00;101678.94;5081473;28;20054;-76
2021/12/31 09:17:49;;;;;;;10.18;3.33;;;;;;;11.61;100.00;101681.59;5081944;28;20134;-77
2021/12/31 09:20:17;;;;;;;7.00;3.35;;;;;;;11.58;100.00;101698.63;5083230;28;20118;-76
2021/12/31 09:22:47;;;;;;;5.53;3.20;;;;;;;11.58;100.00;101709.31;5083380;28;20046;-77
2021/12/31 09:25:48;;;;;;;8.45;3.55;;;;;;;11.62;100.00;101710.13;5081991;28;20514;-74
2021/12/31 09:28:42;;;;;;;8.18;3.25;;;;;;;11.57;100.00;101704.00;5078240;28;20140;-73
2021/12/31 09:31:53;;;;;;;5.82;3.20;;;;;;;11.64;100.00;101702.06;5085445;28;20259;-73
2021/12/31 09:34:52;;;;;;;6.25;3.17;;;;;;;11.61;100.00;101684.28;5072729;28;20054;-73
2021/12/31 09:37:35;;;;;;;7.43;3.35;;;;;;;11.56;100.00;101689.75;5081762;28;20087;-76
2021/12/31 09:40:05;;;;;;;10.27;3.50;;;;;;;11.63;100.00;101703.88;5082900;28;20056;-76
2021/12/31 09:42:36;;;;;;;5.63;3.13;;;;;;;11.67;100.00;101723.38;5075869;28;20106;-76
2021/12/31 09:48:13;;;;;;;7.40;3.53;;;;;;;11.66;100.00;101710.91;5056536;28;20056;-73
2021/12/31 09:51:24;;;;;;;6.88;3.58;;;;;;;11.65;100.00;101714.53;5068934;28;20049;-73
2021/12/31 09:54:21;;;;;;;10.90;3.75;;;;;;;11.63;100.00;101701.19;5066292;28;20051;-73
2021/12/31 09:56:56;;;;;;;6.88;3.15;;;;;;;11.67;100.00;101686.81;5071176;28;20273;-77
2021/12/31 09:59:31;;;;;;;9.43;3.58;;;;;;;11.65;100.00;101702.03;5069111;28;20056;-76
2021/12/31 10:01:59;;;;;;;8.75;3.42;;;;;;;11.64;100.00;101710.09;5068076;28;20048;-76
2021/12/31 10:04:50;;;;;;;7.57;3.58;;;;;;;11.67;100.00;101718.03;5067798;28;20094;-75
2021/12/31 10:07:20;;;;;;;9.82;3.95;;;;;;;11.63;100.00;101722.56;5069387;28;20129;-76
2021/12/31 10:10:09;;;;;;;9.95;3.78;;;;;;;11.67;100.00;101744.78;5069158;28;20641;-76
2021/12/31 10:12:47;;;;;;;8.00;3.70;;;;;;;11.62;100.00;101735.97;5065260;28;20044;-76
2021/12/31 10:21:20;;;;;;;8.48;3.78;;;;;;;11.58;100.00;101695.94;5067823;28;20137;-76
2021/12/31 10:23:48;;;;;;;13.38;3.53;;;;;;;11.62;100.00;101709.25;5070529;28;20167;-76
2021/12/31 10:26:18;;;;;;;8.77;4.45;;;;;;;11.60;100.00;101693.25;5067544;28;20070;-76
2021/12/31 10:28:54;;;;;;;10.63;3.67;;;;;;;11.63;100.00;101649.50;5069077;28;20083;-76
2021/12/31 10:31:29;;;;;;;8.23;3.70;;;;;;;11.67;100.00;101629.81;5066482;28;20048;-77
2021/12/31 10:34:06;;;;;;;10.73;4.15;;;;;;;11.68;100.00;101608.41;5069364;28;20044;-75
2021/12/31 10:36:49;;;;;;;7.63;4.15;;;;;;;11.78;100.00;101630.41;5066888;28;20487;-77
2021/12/31 10:39:41;;;;;;;11.05;3.67;;;;;;;11.90;100.00;101632.81;5051327;28;20048;-73
2021/12/31 10:42:43;;;;;;;9.70;3.83;;;;;;;12.22;100.00;101659.69;5063236;28;20055;-74
2021/12/31 10:45:29;;;;;;;8.13;4.30;;;;;;;12.31;100.00;101676.38;5051647;28;20052;-73
2021/12/31 10:48:38;;;;;;;10.65;3.80;;;;;;;12.33;100.00;101687.06;5066910;28;20460;-75
2021/12/31 10:51:48;;;;;;;6.75;3.58;;;;;;;12.39;100.00;101681.53;5064932;28;20083;-77
2021/12/31 10:55:00;;;;;;;9.73;3.58;;;;;;;12.43;100.00;101672.50;5064715;28;20050;-74
2021/12/31 10:57:51;;;;;;;9.23;4.70;;;;;;;12.39;100.00;101684.19;5052723;28;20052;-76
2021/12/31 11:00:21;;;;;;;12.55;4.10;;;;;;;12.35;100.00;101689.69;5068043;28;20071;-76
2021/12/31 11:06:13;;;;;;;10.27;4.07;;;;;;;12.30;100.00;101682.63;5055855;28;20121;-75
2021/12/31 11:11:38;;;;;;;7.72;4.07;;;;;;;12.30;100.00;101684.44;5067335;28;20160;-76
2021/12/31 11:19:54;;;;;;;11.32;4.53;;;;;;;12.08;100.00;101690.34;5064338;28;20048;-77
2021/12/31 11:22:44;;;;;;;9.80;4.32;;;;;;;12.09;100.00;101693.91;5066839;28;20056;-73
2021/12/31 11:26:14;;;;;;;11.05;4.05;;;;;;;11.96;100.00;101698.66;5051619;28;20074;-73
2021/12/31 11:29:16;;;;;;;12.18;4.68;;;;;;;11.89;100.00;101697.03;5052494;28;20565;-76
2021/12/31 11:31:45;;;;;;;12.38;4.93;;;;;;;11.89;100.00;101699.69;5066309;28;20132;-77
2021/12/31 11:34:15;;;;;;;11.15;4.47;;;;;;;11.85;100.00;101690.88;5068904;28;20050;-77
2021/12/31 11:36:46;;;;;;;9.65;4.78;;;;;;;11.85;100.00;101688.19;5066091;28;20184;-77
2021/12/31 11:42:11;;;;;;;10.63;4.50;;;;;;;11.81;100.00;101690.97;4584743;27;16475272;-75
2021/12/31 11:45:05;;;;;;;10.38;4.95;;;;;;;12.18;100.00;101693.66;5172339;27;20129;-76
2021/12/31 11:47:37;;;;;;;12.98;4.68;;;;;;;12.33;100.00;101693.28;5173386;27;20723;-76
2021/12/31 11:50:29;;;;;;;10.52;4.70;;;;;;;12.60;100.00;101704.19;5172524;27;20042;-76
2021/12/31 11:53:33;;;;;;;10.82;5.20;;;;;;;12.60;100.00;101708.63;5170617;27;20053;-75
2021/12/31 12:03:30;;;;;;;12.07;5.93;;;;;;;12.40;100.00;101706.50;5169856;27;20429;-76
2021/12/31 12:05:59;;;;;;;10.38;4.68;;;;;;;12.29;100.00;101698.72;5172010;27;20477;-78
2021/12/31 12:08:27;;;;;;;12.27;4.88;;;;;;;12.11;100.00;101718.81;5169983;27;20535;-77
2021/12/31 12:10:55;;;;;;;11.10;4.60;;;;;;;12.16;100.00;101698.19;5170657;27;20046;-76
2021/12/31 12:13:28;;;;;;;11.02;5.55;;;;;;;12.12;100.00;101704.50;5168584;27;20062;-77
2021/12/31 12:16:34;;;;;;;9.00;4.47;;;;;;;12.12;100.00;101708.09;5172429;27;20046;-74
2021/12/31 12:19:08;;;;;;;12.68;4.90;;;;;;;12.30;100.00;101701.38;5167951;27;20056;-77
2021/12/31 12:21:38;;;;;;;11.73;5.80;;;;;;;12.49;100.00;101692.88;5171416;27;20088;-77
2021/12/31 12:27:29;;;;;;;9.15;4.70;;;;;;;12.67;100.00;101689.69;5169314;27;20164;-73
2021/12/31 12:31:03;;;;;;;13.77;5.88;;;;;;;12.73;100.00;101703.84;5156137;27;20054;-74
2021/12/31 12:34:17;;;;;;;12.50;5.07;;;;;;;12.63;100.00;101705.88;5173154;27;20401;-73
2021/12/31 12:37:05;;;;;;;13.50;5.50;;;;;;;12.62;100.00;101713.03;5170451;27;20137;-73
2021/12/31 12:42:47;;;;;;;14.25;4.70;;;;;;;12.58;100.00;101714.06;5117617;27;20551;-74
2021/12/31 12:48:31;;;;;;;12.90;4.75;;;;;;;12.58;100.00;101724.78;5154111;27;20410;-77
2021/12/31 12:51:00;;;;;;;10.95;4.72;;;;;;;12.57;100.00;101728.34;5171217;27;20042;-77
2021/12/31 12:53:31;;;;;;;10.25;4.50;;;;;;;12.57;100.00;101725.69;5159170;27;20052;-76
2021/12/31 12:56:04;;;;;;;11.30;4.82;;;;;;;12.52;100.00;101744.53;5156643;27;20076;-76
2021/12/31 12:58:32;;;;;;;11.60;4.88;;;;;;;12.50;100.00;101758.88;5158682;27;20060;-76
2021/12/31 13:01:03;;;;;;;15.85;5.38;;;;;;;12.46;100.00;101765.22;5156600;27;20110;-77
2021/12/31 13:03:31;;;;;;;12.93;4.85;;;;;;;12.41;100.00;101767.13;5159697;27;20050;-77
2021/12/31 13:06:05;;;;;;;10.32;4.05;;;;;;;12.35;100.00;101772.66;5156368;27;20078;-77
2021/12/31 13:08:35;;;;;;;9.55;4.63;;;;;;;12.38;100.00;101781.47;5157104;27;20432;-77
2021/12/31 13:11:18;;;;;;;12.82;4.70;;;;;;;12.28;100.00;101764.75;5159180;27;20140;-74
2021/12/31 13:14:22;;;;;;;11.85;5.13;;;;;;;12.31;100.00;101774.53;5142134;27;20173;-74
2021/12/31 13:16:53;;;;;;;16.65;6.35;;;;;;;12.28;100.00;101774.59;5139122;27;21961;-77
2021/12/31 13:19:28;;;;;;;10.82;5.45;;;;;;;12.25;100.00;101770.19;5156458;27;20391;-77
2021/12/31 13:21:59;;;;;;;15.40;6.47;;;;;;;12.23;100.00;101785.41;5156460;27;20043;-77
2021/12/31 13:24:28;;;;;;;12.10;5.50;;;;;;;12.16;100.00;101767.75;5157807;27;20050;-76
2021/12/31 13:27:03;;;;;;;19.42;5.47;;;;;;;12.12;100.00;101764.25;5156450;27;20046;-76
2021/12/31 13:29:32;;;;;;;14.23;5.70;;;;;;;12.06;100.00;101775.09;5157255;27;20545;-77
2021/12/31 13:32:08;;;;;;;16.35;5.72;;;;;;;12.00;100.00;101767.22;5159099;27;20038;-76
2021/12/31 13:41:05;;;;;;;19.98;5.88;;;;;;;11.85;100.00;101763.09;5143851;27;20057;-73
2021/12/31 13:56:01;;;;;;;36.05;16.00;;;;;;;11.75;100.00;101790.94;5154300;27;20388;-75
2021/12/31 13:59:30;;;;;;;17.42;6.45;;;;;;;11.76;100.00;101779.31;5157406;27;20050;-74
2021/12/31 14:02:44;;;;;;;18.73;7.05;;;;;;;11.74;100.00;101792.72;5157205;27;20053;-74